Time;durP1;ratioP1;P1;durP2;ratioP2;P2;SDS_P1;SDS_P2;PMS_P1;PMS_P2;Temp;Humidity;BMP_temperature;BMP_pressure;BME280_temperature;BME280_humidity;BME280_pressure;Samples;Min_cycle;Max_cycle;Signal;HPM_P1;HPM_P2
2021/04/20 00:04:39;;;;;;;;;;;6.70;99.90;;;5.53;89.03;95715.81;10528041;28;2158;-83
2021/04/20 00:09:40;;;;;;;;;;;7.70;99.90;;;5.54;89.03;95712.13;10530684;28;1981;-81
2021/04/20 00:14:42;;;;;;;;;;;6.60;99.90;;;5.56;89.06;95707.34;10530434;28;1790;-83
2021/04/20 00:19:44;;;;;;;;;;;6.80;99.90;;;5.60;89.37;95708.47;10525983;28;2023;-83
2021/04/20 00:24:46;;;;;;;;;;;6.60;99.90;;;5.68;89.25;95702.72;10535661;28;1965;-84
2021/04/20 00:29:48;;;;;;;;;;;6.70;99.90;;;5.68;89.40;95698.19;10513153;28;2041;-84
2021/04/20 00:34:50;;;;;;;;;;;6.70;99.90;;;5.65;89.54;95693.34;10527435;28;1865;-83
2021/04/20 00:39:52;;;;;;;;;;;6.90;99.90;;;5.62;89.99;95688.50;10532188;28;1953;-83
2021/04/20 00:44:54;;;;;;;;;;;6.70;99.90;;;5.61;90.13;95688.75;10534352;28;1914;-84
2021/04/20 00:49:56;;;;;;;;;;;6.70;99.90;;;5.62;90.13;95690.38;10524513;28;1965;-82
2021/04/20 00:54:58;;;;;;;;;;;7.30;99.90;;;5.66;89.84;95688.81;10567159;28;1952;-84
2021/04/20 01:00:00;;;;;;;;;;;6.70;99.90;;;5.68;90.16;95692.06;10567285;28;2188;-85
2021/04/20 01:05:01;;;;;;;;;;;7.70;99.90;;;5.61;89.91;95694.09;10552126;28;2270;-87
2021/04/20 01:10:04;;;;;;;;;;;6.80;99.90;;;5.68;89.93;95694.72;10555374;28;2920;-87
2021/04/20 01:15:06;;;;;;;;;;;6.70;99.90;;;5.62;90.11;95688.50;10546283;28;2020;-84
2021/04/20 01:20:08;;;;;;;;;;;6.70;99.90;;;5.58;89.94;95687.38;10555975;28;2034;-82
2021/04/20 01:25:10;;;;;;;;;;;8.00;99.90;;;5.61;90.01;95691.44;10546597;28;2011;-84
2021/04/20 01:30:12;;;;;;;;;;;6.60;99.90;;;5.64;89.87;95693.59;10536671;28;2146;-84
2021/04/20 01:35:14;;;;;;;;;;;7.00;99.90;;;5.74;89.91;95684.94;10524373;28;2083;-83
2021/04/20 01:40:17;;;;;;;;;;;6.70;99.90;;;5.70;89.64;95693.41;10565415;28;2001;-84
2021/04/20 01:45:19;;;;;;;;;;;6.70;99.90;;;5.65;89.80;95687.19;10534943;28;2178;-86
2021/04/20 01:50:21;;;;;;;;;;;7.50;99.90;;;5.71;89.74;95688.88;10560202;28;2404;-88
2021/04/20 01:55:23;;;;;;;;;;;6.70;99.90;;;5.70;89.66;95689.94;10521646;28;2193;-82
2021/04/20 02:00:25;;;;;;;;;;;7.00;99.90;;;5.70;89.87;95689.94;10553595;28;2086;-86
2021/04/20 02:05:27;;;;;;;;;;;6.70;99.90;;;5.62;89.88;95687.69;10529102;28;1906;-82
2021/04/20 02:10:29;;;;;;;;;;;6.80;99.90;;;5.64;89.73;95685.59;10534686;28;2068;-84
2021/04/20 02:15:31;;;;;;;;;;;6.70;99.90;;;5.62;89.98;95688.50;10529782;28;2105;-85
2021/04/20 02:20:33;;;;;;;;;;;6.70;99.90;;;5.59;89.96;95688.97;10531230;28;2032;-83
2021/04/20 02:25:35;;;;;;;;;;;6.60;99.90;;;5.62;90.20;95687.69;10518053;28;2175;-81
2021/04/20 02:30:37;;;;;;;;;;;6.90;99.90;;;5.59;89.93;95688.97;10520086;28;2168;-84
2021/04/20 02:35:38;;;;;;;;;;;6.60;99.90;;;5.58;89.91;95681.22;10515970;28;1863;-83
2021/04/20 02:40:40;;;;;;;;;;;6.60;99.90;;;5.53;90.30;95684.63;10529246;28;2116;-86
2021/04/20 02:45:42;;;;;;;;;;;6.60;99.90;;;5.53;90.69;95684.63;10525910;28;2168;-85
2021/04/20 02:50:44;;;;;;;;;;;7.40;99.90;;;5.45;91.44;95686.91;10516388;28;2030;-84
2021/04/20 02:55:47;;;;;;;;;;;6.50;99.90;;;5.39;91.75;95680.69;10533306;28;1980;-83
2021/04/20 03:00:48;;;;;;;;;;;6.50;99.90;;;5.38;92.21;95682.53;10508766;28;2241;-83
2021/04/20 03:05:50;;;;;;;;;;;6.50;99.90;;;5.32;92.68;95667.50;10529374;28;2030;-85
2021/04/20 03:10:52;;;;;;;;;;;6.40;99.90;;;5.39;93.55;95672.69;10510890;28;2173;-85
2021/04/20 03:15:55;;;;;;;;;;;7.20;99.90;;;5.39;93.33;95678.81;10528163;28;2042;-82
2021/04/20 03:20:57;;;;;;;;;;;6.40;99.90;;;5.43;93.97;95674.63;10518218;28;1918;-85
2021/04/20 03:25:59;;;;;;;;;;;6.70;99.90;;;5.45;93.39;95673.56;10518280;28;2084;-85
2021/04/20 03:31:01;;;;;;;;;;;7.00;99.90;;;5.41;92.71;95660.75;10528515;28;2131;-83
2021/04/20 03:36:03;;;;;;;;;;;6.90;99.90;;;5.36;92.74;95658.00;10534826;28;2216;-84
2021/04/20 03:41:08;;;;;;;;;;;6.40;99.90;;;5.36;93.16;95657.19;10499335;28;2110;-83
2021/04/20 03:46:10;;;;;;;;;;;6.40;99.90;;;5.37;93.33;95651.59;10509104;28;2343;-83
2021/04/20 03:51:12;;;;;;;;;;;6.40;99.90;;;5.36;93.33;95660.66;10512789;28;1522;-84
2021/04/20 03:56:14;;;;;;;;;;;6.40;99.90;;;5.39;93.07;95670.81;10518737;28;2003;-85
2021/04/20 04:01:17;;;;;;;;;;;6.40;99.90;;;5.33;93.14;95673.66;10529585;28;2263;-83
2021/04/20 04:06:21;;;;;;;;;;;7.10;99.90;;;5.31;92.99;95670.44;10540942;28;1924;-83
2021/04/20 04:11:23;;;;;;;;;;;6.40;99.90;;;5.35;93.28;95661.72;10542540;28;2053;-87
2021/04/20 04:16:24;;;;;;;;;;;7.10;99.90;;;5.37;93.62;95670.25;10524900;28;2136;-85
2021/04/20 04:21:32;;;;;;;;;;;6.80;99.90;;;5.32;93.17;95667.50;10518940;28;1910;-87
2021/04/20 04:26:34;;;;;;;;;;;6.70;99.90;;;5.34;92.88;95664.59;10527525;28;1786;-83
2021/04/20 04:31:39;;;;;;;;;;;6.80;99.90;;;5.29;93.30;95668.00;10522491;28;2242;-85
2021/04/20 04:36:45;;;;;;;;;;;6.30;99.90;;;5.34;93.14;95669.94;10541947;28;2131;-86
2021/04/20 04:41:48;;;;;;;;;;;6.70;99.90;;;5.32;92.93;95666.72;10517446;28;1917;-85
2021/04/20 04:46:49;;;;;;;;;;;6.40;99.90;;;5.37;93.16;95680.13;10517321;28;1866;-86
2021/04/20 04:51:51;;;;;;;;;;;6.40;99.90;;;5.45;92.91;95681.56;10540335;28;2314;-82
2021/04/20 04:56:54;;;;;;;;;;;7.10;99.90;;;5.40;91.99;95677.75;10513965;28;1602;-86
2021/04/20 05:01:56;;;;;;;;;;;6.40;99.90;;;5.39;92.35;95678.81;10507431;28;1947;-84
2021/04/20 05:06:58;;;;;;;;;;;8.00;99.90;;;5.33;92.13;95685.13;10509947;28;1722;-83
2021/04/20 05:12:00;;;;;;;;;;;6.40;99.90;;;5.47;92.38;95687.44;10514437;28;2354;-82
2021/04/20 05:17:03;;;;;;;;;;;6.60;99.90;;;5.55;92.51;95693.19;10525992;28;2056;-85
2021/04/20 05:22:05;;;;;;;;;;;7.60;99.90;;;5.70;91.15;95692.63;10514472;28;2286;-83
2021/04/20 05:27:07;;;;;;;;;;;6.60;99.90;;;5.74;90.90;95685.75;10516315;28;1826;-84
2021/04/20 05:32:09;;;;;;;;;;;7.80;99.90;;;5.83;90.81;95680.78;10523859;28;2056;-83
2021/04/20 05:37:12;;;;;;;;;;;6.80;99.90;;;6.08;90.47;95678.50;10525143;28;2151;-84
2021/04/20 05:42:15;;;;;;;;;;;7.40;99.90;;;6.31;89.55;95677.47;10536625;28;1985;-83
2021/04/20 05:47:17;;;;;;;;;;;8.40;99.90;;;6.46;88.01;95669.63;10534597;28;2078;-86
2021/04/20 05:52:19;;;;;;;;;;;8.00;99.90;;;6.60;87.34;95682.56;10509803;28;1881;-83
2021/04/20 05:57:21;;;;;;;;;;;8.00;99.90;;;6.67;86.01;95673.31;10487891;28;1968;-86
2021/04/20 06:02:24;;;;;;;;;;;8.40;99.90;;;6.88;85.81;95684.22;10513729;28;2244;-85
2021/04/20 06:12:39;;;;;;;;;;;7.90;99.90;;;7.15;83.61;95692.22;10476573;28;1964;-84
2021/04/20 06:17:46;;;;;;;;;;;8.70;99.90;;;7.34;82.79;95706.03;10453638;28;2073;-84
2021/04/20 06:53:02;;;;;;;;;;;8.80;99.90;;;7.30;82.58;95724.44;10480226;28;1976;-83
2021/04/20 06:58:18;;;;;;;;;;;8.10;99.90;;;7.61;80.73;95732.72;10470704;28;1995;-86
2021/04/20 07:03:23;;;;;;;;;;;10.00;99.90;;;7.94;79.28;95729.75;10469337;28;1937;-86
2021/04/20 07:08:33;;;;;;;;;;;8.50;99.90;;;8.48;79.75;95724.22;10471797;28;1700;-86
2021/04/20 07:13:35;;;;;;;;;;;8.90;99.90;;;8.56;75.70;95725.56;10475313;28;1924;-83
2021/04/20 07:18:51;;;;;;;;;;;10.40;99.90;;;8.57;75.92;95717.25;10471850;28;2088;-84
2021/04/20 07:24:18;;;;;;;;;;;9.40;99.90;;;8.92;74.68;95713.09;10480799;28;1996;-88
2021/04/20 07:29:26;;;;;;;;;;;10.90;99.90;;;9.23;73.58;95718.53;10476796;28;1390;-85
2021/04/20 07:34:32;;;;;;;;;;;9.90;99.90;;;9.10;73.47;95720.66;10451471;28;1852;-85
2021/04/20 07:39:37;;;;;;;;;;;9.90;99.90;;;9.23;71.98;95723.91;10476751;28;1897;-84
2021/04/20 07:44:44;;;;;;;;;;;10.10;99.90;;;9.07;73.82;95720.38;10447344;28;1959;-84
2021/04/20 07:49:46;;;;;;;;;;;9.90;99.90;;;9.42;73.71;95725.00;10450877;28;1964;-85
2021/04/20 08:13:00;;;;;;;;;;;11.30;99.90;;;10.69;67.24;95716.75;10302056;28;2133;-88
2021/04/20 08:24:20;;;;;;;;;;;11.40;99.90;;;10.65;67.84;95718.38;10449246;28;2038;-84
2021/04/20 08:29:45;;;;;;;;;;;;;;;;;;;;;
2021/04/20 08:47:37;;;;;;;;;;;11.60;99.90;;;10.74;72.53;95711.34;10300640;28;2160;-83
2021/04/20 08:58:19;;;;;;;;;;;11.80;99.90;;;11.18;71.48;95709.78;10294016;28;2006;-86
2021/04/20 09:03:45;;;;;;;;;;;;;;;;;;;;;
2021/04/20 09:14:45;;;;;;;;;;;12.40;99.90;;;11.75;64.24;95716.38;10295650;28;2167;-86
2021/04/20 09:20:16;;;;;;;;;;;12.60;99.90;;;11.73;64.51;95716.66;10480363;28;2090;-86
2021/04/20 09:30:41;;;;;;;;;;;12.70;99.90;;;12.15;64.87;95712.53;10468531;28;1983;-87
2021/04/20 09:35:48;;;;;;;;;;;12.90;99.90;;;12.29;62.92;95704.59;10467519;28;2050;-89
2021/04/20 09:40:56;;;;;;;;;;;13.00;99.90;;;12.54;61.40;95712.41;10471608;28;1881;-85
2021/04/20 09:52:23;;;;;;;;;;;13.50;99.90;;;12.68;63.01;95701.72;10438566;28;1979;-85
2021/04/20 09:57:35;;;;;;;;;;;13.60;99.90;;;12.44;65.19;95704.41;10469671;28;1990;-87
2021/04/20 10:02:51;;;;;;;;;;;13.60;99.90;;;12.73;69.52;95712.44;10465597;28;2110;-84
2021/04/20 10:08:08;;;;;;;;;;;13.60;99.90;;;13.20;65.30;95705.34;10446147;28;1980;-84
2021/04/20 10:13:18;;;;;;;;;;;13.90;99.90;;;12.52;66.25;95705.66;10474276;28;1994;-84
2021/04/20 10:18:22;;;;;;;;;;;13.70;99.90;;;12.64;68.19;95698.78;10442039;28;1874;-84
2021/04/20 10:23:36;;;;;;;;;;;13.60;99.90;;;12.90;66.22;95707.34;10460380;28;2013;-87
2021/04/20 10:29:01;;;;;;;;;;;13.70;99.90;;;13.04;59.11;95690.44;10468102;28;1896;-83
2021/04/20 10:40:17;;;;;;;;;;;14.30;99.90;;;14.37;54.78;95679.13;10392265;28;1969;-84
2021/04/20 10:45:28;;;;;;;;;;;14.90;99.90;;;13.94;56.97;95682.06;10463682;28;1968;-84
2021/04/20 10:50:39;;;;;;;;;;;15.10;99.90;;;14.01;52.41;95670.88;10448219;28;2033;-84
2021/04/20 10:56:02;;;;;;;;;;;15.10;99.90;;;14.89;50.51;95668.94;10361964;28;2197;-84
2021/04/20 11:01:12;;;;;;;;;;;15.40;99.90;;;14.95;48.02;95666.88;10448845;28;1929;-85
2021/04/20 11:06:49;;;;;;;;;;;15.50;99.90;;;14.27;52.88;95674.72;10476059;28;1778;-85
2021/04/20 11:17:17;;;;;;;;;;;15.70;99.90;;;14.99;47.39;95667.88;10455324;28;2034;-82
2021/04/20 11:22:26;;;;;;;;;;;16.00;97.90;;;15.34;47.10;95658.19;10439740;28;2166;-83
2021/04/20 11:28:01;;;;;;;;;;;16.30;96.20;;;14.47;49.83;95661.94;10450949;28;1891;-84
2021/04/20 11:33:07;;;;;;;;;;;15.80;96.00;;;13.20;53.59;95656.75;10460808;28;1856;-82
2021/04/20 11:38:11;;;;;;;;;;;14.70;97.20;;;13.37;53.52;95657.09;10453914;28;1640;-83
2021/04/20 11:43:22;;;;;;;;;;;14.40;99.40;;;13.82;54.15;95656.63;10457787;28;2141;-80
2021/04/20 11:48:46;;;;;;;;;;;14.60;99.90;;;14.53;50.58;95645.31;10454080;28;2406;-80
2021/04/20 11:53:55;;;;;;;;;;;15.10;98.10;;;15.19;47.95;95642.28;10426765;28;2039;-79
2021/04/20 11:59:16;;;;;;;;;;;15.70;95.50;;;15.45;46.18;95632.44;10454451;28;2039;-80
2021/04/20 12:04:19;;;;;;;;;;;15.90;93.10;;;15.91;45.27;95626.72;10436717;28;1971;-79
2021/04/20 12:09:31;;;;;;;;;;;16.30;90.90;;;16.70;44.30;95620.50;10454104;28;2000;-79
2021/04/20 12:14:51;;;;;;;;;;;16.70;89.60;;;16.42;43.90;95630.00;10445113;28;2431;-79
2021/04/20 12:19:55;;;;;;;;;;;17.10;86.90;;;15.90;44.70;95629.72;10449838;28;2362;-80
2021/04/20 12:24:57;;;;;;;;;;;16.90;85.50;;;15.55;45.09;95634.13;10455887;28;1958;-79
2021/04/20 12:29:58;;;;;;;;;;;16.50;85.80;;;15.46;45.65;95622.41;10450278;28;2042;-79
2021/04/20 12:35:16;;;;;;;;;;;16.30;85.40;;;15.43;46.11;95623.81;10440392;28;1752;-84
2021/04/20 12:40:19;;;;;;;;;;;16.40;85.70;;;14.95;47.14;95624.41;10467962;28;1975;-84
2021/04/20 12:45:21;;;;;;;;;;;16.30;85.00;;;15.67;45.31;95618.13;10477729;28;1983;-85
2021/04/20 12:50:29;;;;;;;;;;;16.20;85.40;;;15.18;46.54;95606.28;10476502;28;2000;-81
2021/04/20 12:55:32;;;;;;;;;;;16.00;84.30;;;15.85;44.42;95590.03;10486531;28;2029;-85
2021/04/20 13:00:44;;;;;;;;;;;;;;;;;;;;;
2021/04/20 13:05:50;;;;;;;;;;;16.40;82.30;;;16.26;43.06;95585.41;10473793;28;1957;-81
2021/04/20 13:10:53;;;;;;;;;;;16.70;82.00;;;16.21;41.71;95589.84;10471499;28;1980;-82
2021/04/20 13:16:00;;;;;;;;;;;17.00;79.80;;;15.27;43.66;95587.38;10495415;28;1994;-83
2021/04/20 13:21:05;;;;;;;;;;;16.70;79.00;;;14.40;44.42;95581.19;10476921;28;2073;-79
2021/04/20 13:26:07;;;;;;;;;;;15.80;78.60;;;14.19;46.00;95582.72;10465713;28;2034;-81
2021/04/20 13:31:09;;;;;;;;;;;15.20;81.00;;;14.55;45.80;95567.34;10446102;28;1972;-82
2021/04/20 13:36:11;;;;;;;;;;;15.40;81.60;;;14.98;45.81;95568.84;10466654;28;1910;-82
2021/04/20 13:41:13;;;;;;;;;;;15.70;82.00;;;15.05;45.17;95563.81;10452694;28;1833;-81
2021/04/20 13:46:15;;;;;;;;;;;16.10;81.10;;;15.09;44.89;95559.41;10467339;28;2050;-79
2021/04/20 13:51:19;;;;;;;;;;;16.30;80.00;;;14.71;47.08;95556.22;10438204;28;1913;-83
2021/04/20 13:56:24;;;;;;;;;;;15.80;81.20;;;14.62;46.39;95553.41;10446539;28;1917;-81
2021/04/20 14:01:27;;;;;;;;;;;15.80;81.00;;;14.01;47.49;95552.75;10448078;28;1851;-80
2021/04/20 14:06:31;;;;;;;;;;;15.40;80.70;;;13.66;48.19;95551.53;10471668;28;1934;-82
2021/04/20 14:16:51;;;;;;;;;;;14.70;83.10;;;14.05;47.71;95540.25;10482906;28;1789;-78
2021/04/20 14:21:54;;;;;;;;;;;14.80;83.10;;;14.10;47.46;95535.84;10465984;28;1958;-80
2021/04/20 14:27:06;;;;;;;;;;;15.00;82.40;;;14.40;46.07;95529.81;10482774;28;1534;-80
2021/04/20 14:32:22;;;;;;;;;;;15.20;81.60;;;14.76;44.89;95519.03;10480675;28;1979;-80
2021/04/20 14:37:24;;;;;;;;;;;15.60;80.40;;;15.00;42.25;95526.81;10477284;28;1885;-80
2021/04/20 14:42:29;;;;;;;;;;;15.80;78.10;;;14.90;42.73;95529.00;10483164;28;1878;-80
2021/04/20 14:47:46;;;;;;;;;;;15.80;76.70;;;15.60;40.94;95526.41;10461805;28;1725;-82
2021/04/20 14:53:10;;;;;;;;;;;16.20;76.20;;;15.62;42.03;95524.22;10459205;28;1912;-80
2021/04/20 14:58:56;;;;;;;;;;;16.40;76.10;;;15.67;41.49;95523.28;10426111;28;1589;-81
2021/04/20 15:04:05;;;;;;;;;;;16.40;75.20;;;14.96;43.80;95525.88;10464839;28;1956;-81
2021/04/20 15:09:12;;;;;;;;;;;16.10;76.10;;;14.51;44.23;95525.81;10445999;28;1463;-82
2021/04/20 15:14:28;;;;;;;;;;;15.60;76.60;;;14.76;43.35;95523.59;10448931;28;2113;-81
2021/04/20 15:19:53;;;;;;;;;;;15.60;76.30;;;14.13;43.96;95521.75;10339972;28;2102;-80
2021/04/20 15:30:36;;;;;;;;;;;14.90;76.70;;;13.41;46.15;95536.59;10355148;28;2005;-80
2021/04/20 15:35:58;;;;;;;;;;;14.60;77.50;;;13.41;46.50;95538.47;10355891;28;2077;-81
2021/04/20 15:41:07;;;;;;;;;;;14.40;78.10;;;12.99;48.81;95543.75;10434083;22;1964;-77
2021/04/20 15:58:04;;;;;;;;;;;13.90;84.10;;;12.10;53.21;95540.16;10429892;28;1939;-80
2021/04/20 16:03:23;;;;;;;;;;;13.40;84.80;;;12.06;53.20;95539.13;10378484;28;2227;-80
2021/04/20 16:08:48;;;;;;;;;;;13.20;85.40;;;12.05;52.64;95535.63;10413685;28;2067;-81
2021/04/20 16:19:25;;;;;;;;;;;13.00;85.20;;;12.12;51.96;95536.06;10415280;28;2207;-80
2021/04/20 16:24:52;;;;;;;;;;;13.10;85.40;;;12.33;50.97;95542.00;10410192;28;2340;-79
2021/04/20 16:29:58;;;;;;;;;;;13.30;84.90;;;12.23;51.13;95542.16;10406581;28;2185;-79
2021/04/20 16:35:04;;;;;;;;;;;13.30;84.00;;;12.15;53.10;95535.50;10412433;28;2005;-83
2021/04/20 16:40:15;;;;;;;;;;;13.20;85.30;;;11.92;54.67;95540.91;10447484;28;1893;-81
2021/04/20 16:45:25;;;;;;;;;;;13.00;87.10;;;11.59;57.47;95544.19;10407038;28;1987;-79
2021/04/20 16:50:45;;;;;;;;;;;12.80;90.10;;;11.44;58.47;95532.78;10418717;28;2281;-79
2021/04/20 16:56:00;;;;;;;;;;;12.60;91.60;;;11.69;56.72;95529.81;10418140;28;1962;-77
2021/04/20 17:01:12;;;;;;;;;;;12.60;91.20;;;11.99;56.08;95535.97;10421459;28;1891;-78
2021/04/20 17:06:39;;;;;;;;;;;12.70;91.50;;;12.07;55.48;95538.81;10451056;28;1879;-78
2021/04/20 17:11:50;;;;;;;;;;;13.00;90.70;;;12.01;54.48;95539.19;10430207;28;2138;-81
2021/04/20 17:16:56;;;;;;;;;;;13.00;89.60;;;12.00;54.55;95534.88;10460696;28;2057;-81
2021/04/20 17:22:07;;;;;;;;;;;13.00;89.30;;;11.90;54.88;95539.31;10447292;28;2030;-83
2021/04/20 17:27:17;;;;;;;;;;;13.00;89.60;;;11.85;54.31;95533.97;10451423;28;1300;-85
2021/04/20 17:32:22;;;;;;;;;;;12.90;89.20;;;11.66;55.57;95537.69;10423579;28;1731;-84
2021/04/20 17:37:28;;;;;;;;;;;12.80;88.90;;;11.34;56.50;95547.94;10427190;28;1531;-84
2021/04/20 17:42:32;;;;;;;;;;;12.60;89.60;;;11.14;56.44;95536.56;10424382;28;1926;-83
2021/04/20 17:53:13;;;;;;;;;;;12.20;90.70;;;10.85;58.23;95544.59;10387025;28;2023;-85
2021/04/20 17:58:16;;;;;;;;;;;12.10;91.80;;;10.70;58.91;95549.00;10411860;28;1984;-80
2021/04/20 18:03:24;;;;;;;;;;;11.90;92.70;;;10.48;60.04;95556.66;10400884;28;1922;-83
2021/04/20 18:08:40;;;;;;;;;;;11.80;93.50;;;10.27;61.77;95556.78;10421312;28;1315;-83
2021/04/20 18:13:50;;;;;;;;;;;11.50;95.10;;;10.10;63.69;95555.47;10415498;28;1512;-83
2021/04/20 18:18:54;;;;;;;;;;;11.30;97.40;;;9.98;64.90;95558.47;10422407;28;1276;-84
2021/04/20 18:24:03;;;;;;;;;;;11.20;99.00;;;9.81;64.99;95563.41;10431308;28;1949;-84
2021/04/20 18:29:18;;;;;;;;;;;11.00;99.60;;;9.73;66.50;95564.75;10433698;28;1391;-85
2021/04/20 18:40:21;;;;;;;;;;;10.80;99.90;;;9.32;69.02;95572.88;10413957;28;2036;-85
2021/04/20 18:51:04;;;;;;;;;;;10.50;99.90;;;9.09;70.44;95582.28;10437578;28;1745;-83
2021/04/20 18:56:38;;;;;;;;;;;10.40;99.90;;;8.93;71.16;95591.41;10428144;28;1168;-82
2021/04/20 19:01:58;;;;;;;;;;;10.20;99.90;;;8.86;72.39;95594.34;10396798;28;1509;-85
2021/04/20 19:18:42;;;;;;;;;;;10.00;99.90;;;8.51;73.45;95597.75;10282238;28;1793;-81
2021/04/20 19:23:50;;;;;;;;;;;9.80;99.90;;;8.47;72.99;95599.38;10281531;28;1915;-83
2021/04/20 19:28:56;;;;;;;;;;;9.70;99.90;;;8.30;73.81;95606.78;10310176;28;1327;-81
2021/04/20 19:34:03;;;;;;;;;;;10.80;99.90;;;8.24;75.11;95605.16;10297634;28;1868;-82
2021/04/20 19:39:13;;;;;;;;;;;9.50;99.90;;;8.29;74.98;95605.19;10291561;28;1647;-84
2021/04/20 19:44:17;;;;;;;;;;;10.80;99.90;;;8.19;75.71;95603.25;10285487;28;1910;-83
2021/04/20 19:49:20;;;;;;;;;;;9.40;99.90;;;8.11;75.49;95607.25;10380130;28;1681;-83
2021/04/20 19:59:44;;;;;;;;;;;9.30;99.90;;;7.85;76.90;95622.38;10399383;28;1280;-83
2021/04/20 20:04:46;;;;;;;;;;;10.70;99.90;;;7.73;77.66;95613.75;10417473;28;1883;-82
2021/04/20 20:09:48;;;;;;;;;;;9.20;99.90;;;7.78;77.56;95619.13;10441018;28;1312;-84
2021/04/20 20:14:51;;;;;;;;;;;9.00;99.90;;;7.75;78.25;95616.97;10425963;28;1678;-83
2021/04/20 20:20:05;;;;;;;;;;;10.00;99.90;;;7.86;78.18;95615.16;10431019;28;1339;-84
2021/04/20 20:25:07;;;;;;;;;;;9.00;99.90;;;7.92;78.25;95619.47;10418748;28;1975;-83
2021/04/20 20:30:11;;;;;;;;;;;9.50;99.90;;;7.94;78.15;95617.34;10419671;28;1403;-85
2021/04/20 20:35:13;;;;;;;;;;;10.50;99.90;;;7.99;77.55;95606.66;10405665;28;1735;-84
2021/04/20 20:40:16;;;;;;;;;;;9.10;99.90;;;8.01;77.69;95607.19;10451664;28;2176;-85
2021/04/20 20:45:19;;;;;;;;;;;9.30;99.90;;;8.01;76.58;95604.50;10458945;28;2035;-79
2021/04/20 20:50:22;;;;;;;;;;;10.10;99.90;;;7.93;76.52;95607.69;10419761;28;2022;-83
2021/04/20 20:55:27;;;;;;;;;;;9.20;99.90;;;7.77;77.79;95600.69;10425165;28;1862;-83
2021/04/20 21:00:30;;;;;;;;;;;9.00;99.90;;;7.59;77.96;95604.59;10429542;28;2049;-84
2021/04/20 21:05:34;;;;;;;;;;;8.90;99.90;;;7.41;78.71;95602.31;10417421;28;2003;-83
2021/04/20 21:16:00;;;;;;;;;;;8.60;99.90;;;7.17;79.84;95607.22;10456038;28;2019;-83
2021/04/20 21:21:02;;;;;;;;;;;8.90;99.90;;;7.03;80.66;95602.31;10447859;28;1652;-82
2021/04/20 21:26:04;;;;;;;;;;;8.30;99.90;;;6.93;80.21;95612.91;10447681;28;2031;-85
2021/04/20 21:31:11;;;;;;;;;;;8.30;99.90;;;6.79;80.53;95606.38;10444197;28;1924;-86
2021/04/20 21:36:14;;;;;;;;;;;9.70;99.90;;;6.71;80.46;95610.31;10461890;28;2141;-83
2021/04/20 21:46:55;;;;;;;;;;;8.30;99.90;;;6.81;81.17;95604.28;10466228;28;2009;-83
2021/04/20 21:52:12;;;;;;;;;;;10.00;99.90;;;6.78;80.98;95608.25;10465672;28;2012;-82
2021/04/20 21:57:16;;;;;;;;;;;8.70;99.90;;;6.68;81.47;95602.81;10481742;28;1777;-82
2021/04/20 22:02:23;;;;;;;;;;;8.90;99.90;;;6.66;82.16;95610.25;10462000;28;1973;-83
2021/04/20 22:07:25;;;;;;;;;;;7.80;99.90;;;6.64;81.47;95608.91;10460813;28;2071;-85
2021/04/20 22:12:38;;;;;;;;;;;8.20;99.90;;;6.62;81.94;95611.84;10477464;28;2024;-83
2021/04/20 22:17:42;;;;;;;;;;;9.30;99.90;;;6.55;82.75;95607.75;10448039;28;2121;-84
2021/04/20 22:22:44;;;;;;;;;;;7.70;99.90;;;6.40;82.23;95619.88;10475297;28;1895;-83
2021/04/20 22:27:46;;;;;;;;;;;8.80;99.90;;;6.28;82.97;95615.75;10467884;28;1800;-85
2021/04/20 22:32:47;;;;;;;;;;;7.60;99.90;;;6.26;83.59;95620.53;10464397;28;2150;-84
2021/04/20 22:37:49;;;;;;;;;;;7.50;99.90;;;6.11;83.46;95619.31;10439929;28;1638;-85
2021/04/20 22:42:51;;;;;;;;;;;7.40;99.90;;;6.08;83.63;95616.31;10439233;28;1961;-83
2021/04/20 22:47:53;;;;;;;;;;;9.10;99.90;;;6.02;83.68;95610.09;10477416;28;2039;-82
2021/04/20 22:52:55;;;;;;;;;;;7.30;99.90;;;5.98;84.19;95614.34;10502528;28;1833;-85
2021/04/20 22:57:57;;;;;;;;;;;7.70;99.90;;;5.89;84.57;95608.59;10483173;28;1980;-87
2021/04/20 23:02:58;;;;;;;;;;;7.20;99.90;;;5.79;84.77;95607.63;10469585;28;1883;-84
2021/04/20 23:08:00;;;;;;;;;;;7.10;99.90;;;5.71;85.20;95611.53;10458246;28;2001;-83
2021/04/20 23:13:02;;;;;;;;;;;7.00;99.90;;;5.65;85.11;95608.00;10442502;28;2046;-82
2021/04/20 23:18:04;;;;;;;;;;;6.90;99.90;;;5.60;85.15;95599.16;10440908;28;1966;-81
2021/04/20 23:23:06;;;;;;;;;;;6.90;99.90;;;5.59;85.29;95597.50;10451617;28;1987;-83
2021/04/20 23:28:08;;;;;;;;;;;6.80;99.90;;;5.62;85.49;95595.19;10461547;28;1918;-82
2021/04/20 23:33:10;;;;;;;;;;;8.00;99.90;;;5.47;85.11;95599.47;10445918;28;1919;-84
2021/04/20 23:38:12;;;;;;;;;;;6.80;99.90;;;5.43;85.59;95605.31;10458188;28;1952;-83
2021/04/20 23:43:15;;;;;;;;;;;7.30;99.90;;;5.38;85.32;95602.56;10452838;28;1966;-82
2021/04/20 23:48:17;;;;;;;;;;;7.00;99.90;;;5.31;85.33;95598.47;10451208;28;2038;-81
2021/04/20 23:53:20;;;;;;;;;;;7.90;99.90;;;5.38;85.27;95591.91;10442376;28;1966;-82
2021/04/20 23:58:23;;;;;;;;;;;6.60;99.90;;;5.36;85.27;95599.34;10461647;28;1776;-85
